sensor_id;sensor_type;location;lat;lon;timestamp;temperature;humidity
70708;SHT30;58277;47.316;18.908;2023-02-10T00:01:14;-4.75;80.88
70708;SHT30;58277;47.316;18.908;2023-02-10T00:03:37;-4.82;81.15
70708;SHT30;58277;47.316;18.908;2023-02-10T00:06:00;-4.82;81.12
70708;SHT30;58277;47.316;18.908;2023-02-10T00:08:24;-4.88;81.40
70708;SHT30;58277;47.316;18.908;2023-02-10T00:10:47;-4.82;81.18
70708;SHT30;58277;47.316;18.908;2023-02-10T00:13:09;-4.92;81.77
70708;SHT30;58277;47.316;18.908;2023-02-10T00:15:32;-5.00;82.31
70708;SHT30;58277;47.316;18.908;2023-02-10T00:17:55;-4.99;82.26
70708;SHT30;58277;47.316;18.908;2023-02-10T00:20:17;-5.06;82.41
70708;SHT30;58277;47.316;18.908;2023-02-10T00:22:40;-4.95;82.12
70708;SHT30;58277;47.316;18.908;2023-02-10T00:25:03;-4.86;81.78
70708;SHT30;58277;47.316;18.908;2023-02-10T00:27:26;-4.68;81.22
70708;SHT30;58277;47.316;18.908;2023-02-10T00:29:50;-4.65;81.24
70708;SHT30;58277;47.316;18.908;2023-02-10T00:32:13;-4.69;81.97
70708;SHT30;58277;47.316;18.908;2023-02-10T00:34:36;-4.59;81.34
70708;SHT30;58277;47.316;18.908;2023-02-10T00:36:59;-4.54;81.39
70708;SHT30;58277;47.316;18.908;2023-02-10T00:39:21;-4.45;81.07
70708;SHT30;58277;47.316;18.908;2023-02-10T00:41:44;-4.48;81.20
70708;SHT30;58277;47.316;18.908;2023-02-10T00:44:07;-4.38;81.23
70708;SHT30;58277;47.316;18.908;2023-02-10T00:46:31;-4.35;81.15
70708;SHT30;58277;47.316;18.908;2023-02-10T00:48:53;-4.28;81.40
70708;SHT30;58277;47.316;18.908;2023-02-10T00:51:16;-4.22;81.07
70708;SHT30;58277;47.316;18.908;2023-02-10T00:53:40;-4.27;80.93
70708;SHT30;58277;47.316;18.908;2023-02-10T00:56:03;-4.21;80.47
70708;SHT30;58277;47.316;18.908;2023-02-10T00:58:26;-4.25;80.23
70708;SHT30;58277;47.316;18.908;2023-02-10T01:00:49;-4.28;80.26
70708;SHT30;58277;47.316;18.908;2023-02-10T01:03:12;-4.21;80.38
70708;SHT30;58277;47.316;18.908;2023-02-10T01:05:35;-4.31;80.70
70708;SHT30;58277;47.316;18.908;2023-02-10T01:07:58;-4.25;80.36
70708;SHT30;58277;47.316;18.908;2023-02-10T01:10:21;-4.24;80.23
70708;SHT30;58277;47.316;18.908;2023-02-10T01:12:44;-4.22;80.28
70708;SHT30;58277;47.316;18.908;2023-02-10T01:15:07;-4.22;80.15
70708;SHT30;58277;47.316;18.908;2023-02-10T01:17:30;-4.41;79.71
70708;SHT30;58277;47.316;18.908;2023-02-10T01:19:53;-4.49;80.04
70708;SHT30;58277;47.316;18.908;2023-02-10T01:22:15;-4.54;79.86
70708;SHT30;58277;47.316;18.908;2023-02-10T01:24:40;-4.52;80.42
70708;SHT30;58277;47.316;18.908;2023-02-10T01:27:03;-4.40;80.18
70708;SHT30;58277;47.316;18.908;2023-02-10T01:29:27;-4.42;79.96
70708;SHT30;58277;47.316;18.908;2023-02-10T01:31:50;-4.44;80.92
70708;SHT30;58277;47.316;18.908;2023-02-10T01:34:12;-4.42;81.02
70708;SHT30;58277;47.316;18.908;2023-02-10T01:36:35;-4.62;81.59
70708;SHT30;58277;47.316;18.908;2023-02-10T01:38:58;-4.66;80.89
70708;SHT30;58277;47.316;18.908;2023-02-10T01:41:22;-4.61;80.19
70708;SHT30;58277;47.316;18.908;2023-02-10T01:45:01;-4.72;80.77
70708;SHT30;58277;47.316;18.908;2023-02-10T01:46:49;-4.68;80.74
70708;SHT30;58277;47.316;18.908;2023-02-10T01:49:17;-4.68;80.85
70708;SHT30;58277;47.316;18.908;2023-02-10T01:54:17;-4.71;81.12
70708;SHT30;58277;47.316;18.908;2023-02-10T01:56:41;-4.78;81.17
70708;SHT30;58277;47.316;18.908;2023-02-10T01:59:05;-4.82;81.57
70708;SHT30;58277;47.316;18.908;2023-02-10T02:01:28;-4.75;81.41
70708;SHT30;58277;47.316;18.908;2023-02-10T02:03:54;-4.89;81.00
70708;SHT30;58277;47.316;18.908;2023-02-10T02:06:18;-4.80;81.03
70708;SHT30;58277;47.316;18.908;2023-02-10T02:08:42;-4.86;80.91
70708;SHT30;58277;47.316;18.908;2023-02-10T02:33:22;-5.28;80.93
70708;SHT30;58277;47.316;18.908;2023-02-10T02:36:19;-5.28;80.98
70708;SHT30;58277;47.316;18.908;2023-02-10T02:38:41;-5.32;81.61
70708;SHT30;58277;47.316;18.908;2023-02-10T02:41:04;-5.59;82.17
70708;SHT30;58277;47.316;18.908;2023-02-10T02:43:26;-5.74;82.72
70708;SHT30;58277;47.316;18.908;2023-02-10T02:45:58;-5.86;82.78
70708;SHT30;58277;47.316;18.908;2023-02-10T02:48:30;-5.95;83.13
70708;SHT30;58277;47.316;18.908;2023-02-10T02:56:08;-6.02;83.85
70708;SHT30;58277;47.316;18.908;2023-02-10T02:58:58;-6.03;83.53
70708;SHT30;58277;47.316;18.908;2023-02-10T03:01:43;-6.20;83.97
70708;SHT30;58277;47.316;18.908;2023-02-10T03:04:07;-6.21;84.32
70708;SHT30;58277;47.316;18.908;2023-02-10T03:06:32;-6.02;83.70
70708;SHT30;58277;47.316;18.908;2023-02-10T03:08:55;-5.93;84.08
70708;SHT30;58277;47.316;18.908;2023-02-10T03:11:18;-5.83;83.48
70708;SHT30;58277;47.316;18.908;2023-02-10T03:13:41;-5.68;83.20
70708;SHT30;58277;47.316;18.908;2023-02-10T03:16:04;-5.56;82.94
70708;SHT30;58277;47.316;18.908;2023-02-10T03:18:27;-5.58;83.13
70708;SHT30;58277;47.316;18.908;2023-02-10T03:20:49;-5.51;83.32
70708;SHT30;58277;47.316;18.908;2023-02-10T03:23:12;-5.45;82.92
70708;SHT30;58277;47.316;18.908;2023-02-10T03:25:35;-5.37;82.30
70708;SHT30;58277;47.316;18.908;2023-02-10T03:27:58;-5.42;82.38
70708;SHT30;58277;47.316;18.908;2023-02-10T03:30:21;-5.37;82.39
70708;SHT30;58277;47.316;18.908;2023-02-10T03:32:43;-5.31;82.45
70708;SHT30;58277;47.316;18.908;2023-02-10T03:35:08;-5.23;82.24
70708;SHT30;58277;47.316;18.908;2023-02-10T03:37:31;-5.17;81.55
70708;SHT30;58277;47.316;18.908;2023-02-10T03:39:54;-5.26;82.08
70708;SHT30;58277;47.316;18.908;2023-02-10T03:42:16;-5.24;82.05
70708;SHT30;58277;47.316;18.908;2023-02-10T03:44:40;-5.20;81.95
70708;SHT30;58277;47.316;18.908;2023-02-10T03:47:02;-5.30;82.23
70708;SHT30;58277;47.316;18.908;2023-02-10T03:49:25;-5.23;82.31
70708;SHT30;58277;47.316;18.908;2023-02-10T03:51:48;-5.30;82.51
70708;SHT30;58277;47.316;18.908;2023-02-10T03:54:10;-5.37;82.69
70708;SHT30;58277;47.316;18.908;2023-02-10T03:56:34;-5.32;82.75
70708;SHT30;58277;47.316;18.908;2023-02-10T03:59:00;-5.30;81.91
70708;SHT30;58277;47.316;18.908;2023-02-10T04:01:23;-5.55;82.52
70708;SHT30;58277;47.316;18.908;2023-02-10T04:03:46;-5.52;82.24
70708;SHT30;58277;47.316;18.908;2023-02-10T04:06:10;-5.68;82.42
70708;SHT30;58277;47.316;18.908;2023-02-10T04:08:33;-5.59;82.67
70708;SHT30;58277;47.316;18.908;2023-02-10T04:10:56;-5.58;82.63
70708;SHT30;58277;47.316;18.908;2023-02-10T04:13:18;-5.65;83.34
70708;SHT30;58277;47.316;18.908;2023-02-10T04:15:47;-5.61;84.13
70708;SHT30;58277;47.316;18.908;2023-02-10T04:18:11;-5.59;83.87
70708;SHT30;58277;47.316;18.908;2023-02-10T04:20:33;-5.66;85.04
70708;SHT30;58277;47.316;18.908;2023-02-10T04:22:56;-5.58;85.06
70708;SHT30;58277;47.316;18.908;2023-02-10T04:25:19;-5.62;84.53
70708;SHT30;58277;47.316;18.908;2023-02-10T04:27:44;-5.50;84.15
70708;SHT30;58277;47.316;18.908;2023-02-10T04:30:07;-5.59;84.30
70708;SHT30;58277;47.316;18.908;2023-02-10T04:32:30;-5.58;83.31
70708;SHT30;58277;47.316;18.908;2023-02-10T04:34:54;-5.79;82.38
70708;SHT30;58277;47.316;18.908;2023-02-10T04:37:17;-5.99;81.78
70708;SHT30;58277;47.316;18.908;2023-02-10T04:39:40;-6.15;82.76
70708;SHT30;58277;47.316;18.908;2023-02-10T04:42:02;-6.31;83.80
70708;SHT30;58277;47.316;18.908;2023-02-10T04:44:25;-6.41;84.36
70708;SHT30;58277;47.316;18.908;2023-02-10T04:46:48;-6.35;84.19
70708;SHT30;58277;47.316;18.908;2023-02-10T04:49:12;-6.33;84.12
70708;SHT30;58277;47.316;18.908;2023-02-10T04:51:35;-6.17;84.22
70708;SHT30;58277;47.316;18.908;2023-02-10T04:53:57;-6.07;84.38
70708;SHT30;58277;47.316;18.908;2023-02-10T04:56:20;-6.20;85.19
70708;SHT30;58277;47.316;18.908;2023-02-10T04:58:43;-6.27;84.68
70708;SHT30;58277;47.316;18.908;2023-02-10T05:01:12;-6.18;84.44
70708;SHT30;58277;47.316;18.908;2023-02-10T05:03:35;-6.14;84.48
70708;SHT30;58277;47.316;18.908;2023-02-10T05:05:58;-6.24;84.86
70708;SHT30;58277;47.316;18.908;2023-02-10T05:08:21;-6.21;84.73
70708;SHT30;58277;47.316;18.908;2023-02-10T05:10:47;-6.38;85.24
70708;SHT30;58277;47.316;18.908;2023-02-10T05:13:09;-6.42;85.05
70708;SHT30;58277;47.316;18.908;2023-02-10T05:15:32;-6.42;84.56
70708;SHT30;58277;47.316;18.908;2023-02-10T05:17:55;-6.46;84.00
70708;SHT30;58277;47.316;18.908;2023-02-10T05:20:18;-6.61;84.33
70708;SHT30;58277;47.316;18.908;2023-02-10T05:22:41;-6.62;84.77
70708;SHT30;58277;47.316;18.908;2023-02-10T05:25:04;-6.49;84.46
70708;SHT30;58277;47.316;18.908;2023-02-10T05:27:26;-6.48;84.60
70708;SHT30;58277;47.316;18.908;2023-02-10T05:29:49;-6.51;85.16
70708;SHT30;58277;47.316;18.908;2023-02-10T05:32:12;-6.41;85.11
70708;SHT30;58277;47.316;18.908;2023-02-10T05:34:35;-6.28;85.08
70708;SHT30;58277;47.316;18.908;2023-02-10T05:36:57;-6.17;84.60
70708;SHT30;58277;47.316;18.908;2023-02-10T05:39:20;-6.20;84.65
70708;SHT30;58277;47.316;18.908;2023-02-10T05:41:45;-6.14;84.89
70708;SHT30;58277;47.316;18.908;2023-02-10T05:44:08;-6.15;84.65
70708;SHT30;58277;47.316;18.908;2023-02-10T05:46:30;-5.96;84.18
70708;SHT30;58277;47.316;18.908;2023-02-10T05:48:53;-6.09;84.67
70708;SHT30;58277;47.316;18.908;2023-02-10T05:51:15;-6.04;84.11
70708;SHT30;58277;47.316;18.908;2023-02-10T05:53:38;-5.92;83.48
70708;SHT30;58277;47.316;18.908;2023-02-10T05:56:01;-5.92;83.23
70708;SHT30;58277;47.316;18.908;2023-02-10T05:58:23;-5.90;83.38
70708;SHT30;58277;47.316;18.908;2023-02-10T06:00:46;-5.93;84.21
70708;SHT30;58277;47.316;18.908;2023-02-10T06:03:09;-6.15;84.97
70708;SHT30;58277;47.316;18.908;2023-02-10T06:05:32;-6.27;84.23
70708;SHT30;58277;47.316;18.908;2023-02-10T06:07:54;-6.20;84.10
70708;SHT30;58277;47.316;18.908;2023-02-10T06:10:18;-6.06;83.61
70708;SHT30;58277;47.316;18.908;2023-02-10T06:12:40;-5.82;82.87
70708;SHT30;58277;47.316;18.908;2023-02-10T06:15:03;-5.68;82.42
70708;SHT30;58277;47.316;18.908;2023-02-10T06:17:26;-5.68;82.91
70708;SHT30;58277;47.316;18.908;2023-02-10T06:19:50;-5.54;82.73
70708;SHT30;58277;47.316;18.908;2023-02-10T06:22:13;-5.72;83.11
70708;SHT30;58277;47.316;18.908;2023-02-10T06:24:36;-5.83;82.58
70708;SHT30;58277;47.316;18.908;2023-02-10T06:26:58;-5.95;82.21
70708;SHT30;58277;47.316;18.908;2023-02-10T06:29:21;-6.02;82.30
70708;SHT30;58277;47.316;18.908;2023-02-10T06:31:44;-5.96;82.68
70708;SHT30;58277;47.316;18.908;2023-02-10T06:34:07;-5.72;81.94
70708;SHT30;58277;47.316;18.908;2023-02-10T06:36:30;-5.51;81.45
70708;SHT30;58277;47.316;18.908;2023-02-10T06:38:53;-5.38;81.61
70708;SHT30;58277;47.316;18.908;2023-02-10T06:41:16;-5.23;81.12
70708;SHT30;58277;47.316;18.908;2023-02-10T06:43:39;-5.07;80.84
70708;SHT30;58277;47.316;18.908;2023-02-10T06:46:02;-4.75;81.21
70708;SHT30;58277;47.316;18.908;2023-02-10T06:48:25;-4.52;82.05
70708;SHT30;58277;47.316;18.908;2023-02-10T06:50:49;-4.13;81.20
70708;SHT30;58277;47.316;18.908;2023-02-10T06:53:11;-3.76;79.17
70708;SHT30;58277;47.316;18.908;2023-02-10T06:55:34;-3.58;79.49
70708;SHT30;58277;47.316;18.908;2023-02-10T06:57:58;-3.85;80.72
70708;SHT30;58277;47.316;18.908;2023-02-10T07:00:21;-3.38;81.31
70708;SHT30;58277;47.316;18.908;2023-02-10T07:02:44;-3.06;78.43
70708;SHT30;58277;47.316;18.908;2023-02-10T07:05:11;-2.73;74.70
70708;SHT30;58277;47.316;18.908;2023-02-10T07:07:35;-2.64;72.19
70708;SHT30;58277;47.316;18.908;2023-02-10T07:09:58;-2.30;70.87
70708;SHT30;58277;47.316;18.908;2023-02-10T07:12:21;-1.82;68.86
70708;SHT30;58277;47.316;18.908;2023-02-10T07:14:43;-1.04;66.06
70708;SHT30;58277;47.316;18.908;2023-02-10T07:17:07;-0.66;64.42
70708;SHT30;58277;47.316;18.908;2023-02-10T07:19:30;-0.32;63.47
70708;SHT30;58277;47.316;18.908;2023-02-10T07:21:53;-0.08;63.12
70708;SHT30;58277;47.316;18.908;2023-02-10T07:24:16;0.21;63.65
70708;SHT30;58277;47.316;18.908;2023-02-10T07:26:39;0.69;62.24
70708;SHT30;58277;47.316;18.908;2023-02-10T07:29:02;0.45;63.34
70708;SHT30;58277;47.316;18.908;2023-02-10T07:31:25;0.41;63.54
70708;SHT30;58277;47.316;18.908;2023-02-10T07:33:48;0.58;62.79
70708;SHT30;58277;47.316;18.908;2023-02-10T07:36:11;0.54;62.46
70708;SHT30;58277;47.316;18.908;2023-02-10T07:38:34;0.17;63.68
70708;SHT30;58277;47.316;18.908;2023-02-10T07:40:58;0.31;64.27
70708;SHT30;58277;47.316;18.908;2023-02-10T07:43:21;0.20;64.50
70708;SHT30;58277;47.316;18.908;2023-02-10T07:45:55;-0.10;65.89
70708;SHT30;58277;47.316;18.908;2023-02-10T07:48:18;-0.01;74.98
70708;SHT30;58277;47.316;18.908;2023-02-10T07:50:41;0.13;66.94
70708;SHT30;58277;47.316;18.908;2023-02-10T07:53:04;0.01;69.20
70708;SHT30;58277;47.316;18.908;2023-02-10T07:55:27;0.27;65.62
70708;SHT30;58277;47.316;18.908;2023-02-10T07:57:51;0.48;65.50
70708;SHT30;58277;47.316;18.908;2023-02-10T08:00:15;0.73;65.27
70708;SHT30;58277;47.316;18.908;2023-02-10T08:02:38;0.78;65.78
70708;SHT30;58277;47.316;18.908;2023-02-10T08:05:00;0.37;67.26
70708;SHT30;58277;47.316;18.908;2023-02-10T08:07:23;0.18;67.35
70708;SHT30;58277;47.316;18.908;2023-02-10T08:09:46;-0.24;68.44
70708;SHT30;58277;47.316;18.908;2023-02-10T08:12:08;-0.66;71.40
70708;SHT30;58277;47.316;18.908;2023-02-10T08:14:32;-0.90;72.32
70708;SHT30;58277;47.316;18.908;2023-02-10T08:16:54;-1.07;73.14
70708;SHT30;58277;47.316;18.908;2023-02-10T08:19:17;-1.18;74.27
70708;SHT30;58277;47.316;18.908;2023-02-10T08:21:40;-1.03;74.53
70708;SHT30;58277;47.316;18.908;2023-02-10T08:24:05;-1.03;74.59
70708;SHT30;58277;47.316;18.908;2023-02-10T08:26:27;-0.79;74.07
70708;SHT30;58277;47.316;18.908;2023-02-10T08:28:51;-0.70;73.57
70708;SHT30;58277;47.316;18.908;2023-02-10T08:31:17;-0.75;74.04
70708;SHT30;58277;47.316;18.908;2023-02-10T08:33:40;-0.55;73.72
70708;SHT30;58277;47.316;18.908;2023-02-10T08:36:11;-0.49;73.97
70708;SHT30;58277;47.316;18.908;2023-02-10T08:38:34;-0.27;72.96
70708;SHT30;58277;47.316;18.908;2023-02-10T08:40:58;0.04;71.51
70708;SHT30;58277;47.316;18.908;2023-02-10T08:43:21;0.07;70.94
70708;SHT30;58277;47.316;18.908;2023-02-10T08:45:43;0.15;69.75
70708;SHT30;58277;47.316;18.908;2023-02-10T08:48:06;0.31;68.82
70708;SHT30;58277;47.316;18.908;2023-02-10T08:50:29;0.44;67.90
70708;SHT30;58277;47.316;18.908;2023-02-10T08:52:52;0.51;67.86
70708;SHT30;58277;47.316;18.908;2023-02-10T08:55:16;0.69;67.50
70708;SHT30;58277;47.316;18.908;2023-02-10T08:57:39;0.75;67.68
70708;SHT30;58277;47.316;18.908;2023-02-10T09:00:02;0.75;67.03
70708;SHT30;58277;47.316;18.908;2023-02-10T09:02:25;0.61;67.75
70708;SHT30;58277;47.316;18.908;2023-02-10T09:04:48;0.65;67.67
70708;SHT30;58277;47.316;18.908;2023-02-10T09:07:25;0.78;67.53
70708;SHT30;58277;47.316;18.908;2023-02-10T09:09:48;0.70;67.83
70708;SHT30;58277;47.316;18.908;2023-02-10T09:12:11;0.73;67.79
70708;SHT30;58277;47.316;18.908;2023-02-10T09:14:34;0.73;68.07
70708;SHT30;58277;47.316;18.908;2023-02-10T09:16:57;0.83;67.00
70708;SHT30;58277;47.316;18.908;2023-02-10T09:19:20;1.12;66.64
70708;SHT30;58277;47.316;18.908;2023-02-10T09:21:43;1.26;66.11
70708;SHT30;58277;47.316;18.908;2023-02-10T09:24:09;1.26;66.37
70708;SHT30;58277;47.316;18.908;2023-02-10T09:26:32;1.26;66.59
70708;SHT30;58277;47.316;18.908;2023-02-10T09:28:54;1.34;66.02
70708;SHT30;58277;47.316;18.908;2023-02-10T09:31:17;1.33;66.30
70708;SHT30;58277;47.316;18.908;2023-02-10T09:33:40;1.28;66.88
70708;SHT30;58277;47.316;18.908;2023-02-10T09:36:04;1.35;66.76
70708;SHT30;58277;47.316;18.908;2023-02-10T09:38:27;1.37;66.29
70708;SHT30;58277;47.316;18.908;2023-02-10T09:54:29;1.87;65.52
70708;SHT30;58277;47.316;18.908;2023-02-10T09:56:55;1.83;65.96
70708;SHT30;58277;47.316;18.908;2023-02-10T09:59:20;1.89;65.05
70708;SHT30;58277;47.316;18.908;2023-02-10T10:04:33;1.87;64.35
70708;SHT30;58277;47.316;18.908;2023-02-10T10:07:17;1.87;63.60
70708;SHT30;58277;47.316;18.908;2023-02-10T10:09:46;2.00;63.17
70708;SHT30;58277;47.316;18.908;2023-02-10T10:12:15;2.07;62.33
70708;SHT30;58277;47.316;18.908;2023-02-10T10:14:40;2.02;62.07
70708;SHT30;58277;47.316;18.908;2023-02-10T10:20:08;2.37;60.33
70708;SHT30;58277;47.316;18.908;2023-02-10T10:30:40;2.48;57.88
70708;SHT30;58277;47.316;18.908;2023-02-10T10:33:23;2.65;57.77
70708;SHT30;58277;47.316;18.908;2023-02-10T10:35:46;2.95;57.63
70708;SHT30;58277;47.316;18.908;2023-02-10T10:38:16;2.98;57.71
70708;SHT30;58277;47.316;18.908;2023-02-10T10:40:43;2.99;55.79
70708;SHT30;58277;47.316;18.908;2023-02-10T10:43:12;2.93;56.66
70708;SHT30;58277;47.316;18.908;2023-02-10T10:45:40;3.02;54.28
70708;SHT30;58277;47.316;18.908;2023-02-10T10:48:08;2.88;53.61
70708;SHT30;58277;47.316;18.908;2023-02-10T10:50:32;3.02;54.58
70708;SHT30;58277;47.316;18.908;2023-02-10T10:52:55;3.06;53.28
70708;SHT30;58277;47.316;18.908;2023-02-10T10:55:38;2.99;53.32
70708;SHT30;58277;47.316;18.908;2023-02-10T10:58:10;3.09;53.41
70708;SHT30;58277;47.316;18.908;2023-02-10T11:00:49;3.03;53.93
70708;SHT30;58277;47.316;18.908;2023-02-10T11:03:14;3.15;53.38
70708;SHT30;58277;47.316;18.908;2023-02-10T11:05:38;3.17;53.57
70708;SHT30;58277;47.316;18.908;2023-02-10T11:08:01;3.33;52.60
70708;SHT30;58277;47.316;18.908;2023-02-10T11:10:46;3.51;53.03
70708;SHT30;58277;47.316;18.908;2023-02-10T11:13:24;3.53;53.42
70708;SHT30;58277;47.316;18.908;2023-02-10T11:15:59;3.51;52.54
70708;SHT30;58277;47.316;18.908;2023-02-10T11:18:23;3.54;52.43
70708;SHT30;58277;47.316;18.908;2023-02-10T11:23:16;3.54;51.96
70708;SHT30;58277;47.316;18.908;2023-02-10T11:25:41;3.60;52.73
70708;SHT30;58277;47.316;18.908;2023-02-10T11:28:18;3.60;53.36
70708;SHT30;58277;47.316;18.908;2023-02-10T11:30:41;3.58;53.85
70708;SHT30;58277;47.316;18.908;2023-02-10T11:33:05;3.65;53.75
70708;SHT30;58277;47.316;18.908;2023-02-10T11:35:30;3.81;53.41
70708;SHT30;58277;47.316;18.908;2023-02-10T11:38:05;3.64;53.35
70708;SHT30;58277;47.316;18.908;2023-02-10T11:40:31;3.61;53.65
70708;SHT30;58277;47.316;18.908;2023-02-10T11:43:01;3.81;53.73
70708;SHT30;58277;47.316;18.908;2023-02-10T11:45:29;3.86;52.72
70708;SHT30;58277;47.316;18.908;2023-02-10T11:48:18;4.03;52.41
70708;SHT30;58277;47.316;18.908;2023-02-10T11:50:41;3.85;53.06
70708;SHT30;58277;47.316;18.908;2023-02-10T11:53:04;3.77;53.27
70708;SHT30;58277;47.316;18.908;2023-02-10T11:55:46;3.74;53.57
70708;SHT30;58277;47.316;18.908;2023-02-10T11:58:39;3.86;52.93
70708;SHT30;58277;47.316;18.908;2023-02-10T12:10:33;4.06;53.16
70708;SHT30;58277;47.316;18.908;2023-02-10T12:13:56;4.22;52.19
70708;SHT30;58277;47.316;18.908;2023-02-10T12:16:15;4.23;52.19
70708;SHT30;58277;47.316;18.908;2023-02-10T12:27:16;3.99;51.06
70708;SHT30;58277;47.316;18.908;2023-02-10T12:33:01;4.01;51.58
70708;SHT30;58277;47.316;18.908;2023-02-10T12:41:18;4.29;51.57
70708;SHT30;58277;47.316;18.908;2023-02-10T12:43:58;4.28;51.89
70708;SHT30;58277;47.316;18.908;2023-02-10T12:49:34;4.32;50.15
70708;SHT30;58277;47.316;18.908;2023-02-10T12:52:13;4.37;50.93
70708;SHT30;58277;47.316;18.908;2023-02-10T12:55:40;4.23;51.11
70708;SHT30;58277;47.316;18.908;2023-02-10T12:57:52;4.44;50.26
70708;SHT30;58277;47.316;18.908;2023-02-10T13:00:34;4.30;50.66
70708;SHT30;58277;47.316;18.908;2023-02-10T13:05:37;4.40;50.52
70708;SHT30;58277;47.316;18.908;2023-02-10T13:08:02;4.33;51.09
70708;SHT30;58277;47.316;18.908;2023-02-10T13:11:07;4.34;51.16
70708;SHT30;58277;47.316;18.908;2023-02-10T13:13:32;4.41;51.31
70708;SHT30;58277;47.316;18.908;2023-02-10T13:15:59;4.44;50.97
70708;SHT30;58277;47.316;18.908;2023-02-10T13:18:31;4.50;50.39
70708;SHT30;58277;47.316;18.908;2023-02-10T13:20:57;4.44;50.61
70708;SHT30;58277;47.316;18.908;2023-02-10T13:23:43;4.54;50.81
70708;SHT30;58277;47.316;18.908;2023-02-10T13:32:11;4.57;50.51
70708;SHT30;58277;47.316;18.908;2023-02-10T13:34:21;4.53;51.30
70708;SHT30;58277;47.316;18.908;2023-02-10T13:36:58;4.71;50.56
70708;SHT30;58277;47.316;18.908;2023-02-10T13:39:26;4.54;51.18
70708;SHT30;58277;47.316;18.908;2023-02-10T13:42:08;4.72;50.80
70708;SHT30;58277;47.316;18.908;2023-02-10T13:44:33;4.67;50.47
70708;SHT30;58277;47.316;18.908;2023-02-10T13:49:32;4.60;50.45
70708;SHT30;58277;47.316;18.908;2023-02-10T13:52:18;4.57;49.89
70708;SHT30;58277;47.316;18.908;2023-02-10T13:54:57;4.56;50.36
70708;SHT30;58277;47.316;18.908;2023-02-10T13:57:24;4.74;50.17
70708;SHT30;58277;47.316;18.908;2023-02-10T13:59:47;4.78;49.55
70708;SHT30;58277;47.316;18.908;2023-02-10T14:02:22;4.84;49.83
70708;SHT30;58277;47.316;18.908;2023-02-10T14:04:54;4.88;49.26
70708;SHT30;58277;47.316;18.908;2023-02-10T14:09:47;4.99;49.31
70708;SHT30;58277;47.316;18.908;2023-02-10T14:12:25;5.02;49.17
70708;SHT30;58277;47.316;18.908;2023-02-10T14:14:48;5.08;49.40
70708;SHT30;58277;47.316;18.908;2023-02-10T14:19:53;5.08;49.32
70708;SHT30;58277;47.316;18.908;2023-02-10T14:22:36;5.29;48.60
70708;SHT30;58277;47.316;18.908;2023-02-10T14:25:16;5.32;48.65
70708;SHT30;58277;47.316;18.908;2023-02-10T14:27:40;5.40;48.51
70708;SHT30;58277;47.316;18.908;2023-02-10T14:30:15;5.46;48.21
70708;SHT30;58277;47.316;18.908;2023-02-10T14:32:45;5.09;48.89
70708;SHT30;58277;47.316;18.908;2023-02-10T14:35:17;5.02;49.26
70708;SHT30;58277;47.316;18.908;2023-02-10T14:37:52;5.02;49.17
70708;SHT30;58277;47.316;18.908;2023-02-10T14:40:17;4.98;49.16
70708;SHT30;58277;47.316;18.908;2023-02-10T14:42:41;4.84;49.39
70708;SHT30;58277;47.316;18.908;2023-02-10T14:45:04;4.68;50.04
70708;SHT30;58277;47.316;18.908;2023-02-10T14:47:37;4.78;49.79
70708;SHT30;58277;47.316;18.908;2023-02-10T14:50:01;4.79;49.96
70708;SHT30;58277;47.316;18.908;2023-02-10T14:52:33;4.74;50.29
70708;SHT30;58277;47.316;18.908;2023-02-10T14:55:00;4.64;50.73
70708;SHT30;58277;47.316;18.908;2023-02-10T14:57:25;4.57;50.90
70708;SHT30;58277;47.316;18.908;2023-02-10T14:59:57;4.57;50.88
70708;SHT30;58277;47.316;18.908;2023-02-10T15:02:23;4.57;51.25
70708;SHT30;58277;47.316;18.908;2023-02-10T15:04:48;4.54;51.10
70708;SHT30;58277;47.316;18.908;2023-02-10T15:07:18;4.50;51.33
70708;SHT30;58277;47.316;18.908;2023-02-10T15:09:42;4.24;52.21
70708;SHT30;58277;47.316;18.908;2023-02-10T15:12:08;4.23;52.12
70708;SHT30;58277;47.316;18.908;2023-02-10T15:17:07;4.06;52.92
70708;SHT30;58277;47.316;18.908;2023-02-10T15:19:35;3.98;53.03
70708;SHT30;58277;47.316;18.908;2023-02-10T15:21:57;3.70;53.86
70708;SHT30;58277;47.316;18.908;2023-02-10T15:24:32;3.61;54.29
70708;SHT30;58277;47.316;18.908;2023-02-10T15:27:08;3.58;54.59
70708;SHT30;58277;47.316;18.908;2023-02-10T15:29:35;3.57;54.66
70708;SHT30;58277;47.316;18.908;2023-02-10T15:31:59;3.22;55.72
70708;SHT30;58277;47.316;18.908;2023-02-10T15:34:25;3.24;55.88
70708;SHT30;58277;47.316;18.908;2023-02-10T15:36:49;3.27;56.03
70708;SHT30;58277;47.316;18.908;2023-02-10T15:39:24;2.99;56.94
70708;SHT30;58277;47.316;18.908;2023-02-10T15:44:41;2.96;57.15
70708;SHT30;58277;47.316;18.908;2023-02-10T15:49:59;2.88;57.51
70708;SHT30;58277;47.316;18.908;2023-02-10T15:52:28;2.78;57.76
70708;SHT30;58277;47.316;18.908;2023-02-10T15:54:54;2.74;58.21
70708;SHT30;58277;47.316;18.908;2023-02-10T15:57:17;2.58;58.58
70708;SHT30;58277;47.316;18.908;2023-02-10T15:59:42;2.64;58.76
70708;SHT30;58277;47.316;18.908;2023-02-10T16:02:06;2.36;59.32
70708;SHT30;58277;47.316;18.908;2023-02-10T16:04:32;2.42;59.43
70708;SHT30;58277;47.316;18.908;2023-02-10T16:06:56;2.36;59.42
70708;SHT30;58277;47.316;18.908;2023-02-10T16:09:19;2.31;59.62
70708;SHT30;58277;47.316;18.908;2023-02-10T16:11:42;2.21;59.80
70708;SHT30;58277;47.316;18.908;2023-02-10T16:14:05;2.29;59.73
70708;SHT30;58277;47.316;18.908;2023-02-10T16:16:28;2.14;60.07
70708;SHT30;58277;47.316;18.908;2023-02-10T16:18:51;2.14;60.20
70708;SHT30;58277;47.316;18.908;2023-02-10T16:21:14;2.13;60.59
70708;SHT30;58277;47.316;18.908;2023-02-10T16:23:37;2.16;60.38
70708;SHT30;58277;47.316;18.908;2023-02-10T16:25:59;2.06;60.66
70708;SHT30;58277;47.316;18.908;2023-02-10T16:28:24;1.96;61.23
70708;SHT30;58277;47.316;18.908;2023-02-10T16:30:47;1.95;61.22
70708;SHT30;58277;47.316;18.908;2023-02-10T16:33:12;1.82;61.74
70708;SHT30;58277;47.316;18.908;2023-02-10T16:35:38;1.76;62.11
70708;SHT30;58277;47.316;18.908;2023-02-10T16:38:01;1.81;62.14
70708;SHT30;58277;47.316;18.908;2023-02-10T16:40:32;1.73;62.28
70708;SHT30;58277;47.316;18.908;2023-02-10T16:42:55;1.66;62.79
70708;SHT30;58277;47.316;18.908;2023-02-10T16:45:22;1.54;63.31
70708;SHT30;58277;47.316;18.908;2023-02-10T16:47:45;1.41;63.91
70708;SHT30;58277;47.316;18.908;2023-02-10T16:50:20;1.41;64.30
70708;SHT30;58277;47.316;18.908;2023-02-10T16:52:45;1.34;64.57
70708;SHT30;58277;47.316;18.908;2023-02-10T16:55:08;1.31;64.72
70708;SHT30;58277;47.316;18.908;2023-02-10T16:57:31;1.30;65.00
70708;SHT30;58277;47.316;18.908;2023-02-10T16:59:54;1.23;65.52
70708;SHT30;58277;47.316;18.908;2023-02-10T17:02:18;1.20;65.62
70708;SHT30;58277;47.316;18.908;2023-02-10T17:04:41;1.19;65.81
70708;SHT30;58277;47.316;18.908;2023-02-10T17:07:04;1.08;66.31
70708;SHT30;58277;47.316;18.908;2023-02-10T17:09:27;1.01;66.67